Strona główna
METAR-TAF:

METAR-TAF

Lotnisko :

Florianópolis, Santa Catarina, Brazylia

Szerokość geograficzna: 27-40S, Długość geograficzna: 048-33W, wysokość: 5 m

Aktualna obserwacja pogody

Raport powstał 1 godzina i 8 minut temu, godzina 08:00 UTC
Wiatr 6 kt od zachodnio-północny zachód
Temperatura 18°C
Wilgotność 88%
Ciśnienie 1015 hPa
Widzialność 10 km lub więcej
Brak chmur poniżej 1500 m i brak chmur cumulonimbus

METAR: SBFL 080800Z 29006KT CAVOK 18/16 Q1015

czas: 06:08 (09:08 UTC)

Prognoza

Raport powstał 6 godziny i 38 minut temu, godzina 02:30 UTC
Prognoza ważna od 08 godzina 06 UTC do 09 godzina 06 UTC
Wiatr 6 kt od zachód
Widzialność 10 km lub więcej
Mało chmury na wysokości 3000 ft
Stopniowe zmiany
od 08 godzina 12 UTC do 08 godzina 14 UTC
Wiatr 9 kt od północ
Widzialność 10 km lub więcej
Brak chmur poniżej 1500 m i brak chmur cumulonimbus

TAF: SBFL 080230Z 0806/0906 28006KT 9999 FEW030 TN18/0808Z TX28/0817Z BECMG 0812/0814 36009KT CAVOK RMK PER

Obserwacja i prognoza pogody dla ponad 4000 lotnisk (raport METAR i TAF).

Dostępne stacje oznaczono żółtymi i czerwonymi punktami na mapie.

Najedź kursorem aby zobaczyć nazwę stacji.

Kliknij aby zobaczyć obserwacje i prognozy pogody.

Aby zmienić mapę: kliknij na zielony przycisk z czarnym krzyżykiem, aby powiększyć; na zielony przycisk z myślnikiem, aby pomniejszyć; na zielone strzałki, aby przejść do map sąsiednich.


METAR-TAF: